createdAt,value
2023-03-14T00:02:54.938Z,9.49
2023-03-14T00:07:57.992Z,9.45
2023-03-14T00:13:01.001Z,9.41
2023-03-14T00:18:04.117Z,9.36
2023-03-14T00:23:07.215Z,9.30
2023-03-14T00:28:10.219Z,9.25
2023-03-14T00:33:13.123Z,9.22
2023-03-14T00:38:16.128Z,9.23
2023-03-14T00:43:22.823Z,9.26
2023-03-14T00:48:25.829Z,9.29
2023-03-14T00:53:28.848Z,9.34
2023-03-14T00:58:31.942Z,9.37
2023-03-14T01:03:35.060Z,9.36
2023-03-14T01:08:38.165Z,9.38
2023-03-14T01:13:41.171Z,9.42
2023-03-14T01:18:46.024Z,9.49
2023-03-14T01:23:50.289Z,9.53
2023-03-14T01:28:55.388Z,9.60
2023-03-14T01:33:58.421Z,9.62
2023-03-14T01:39:01.553Z,9.63
2023-03-14T01:44:04.648Z,9.57
2023-03-14T01:49:34.989Z,9.45
2023-03-14T01:54:47.823Z,9.29
2023-03-14T02:00:21.552Z,9.14
2023-03-14T02:05:29.476Z,9.00
2023-03-14T02:10:38.074Z,8.86
2023-03-14T02:15:41.663Z,8.77
2023-03-14T02:21:10.024Z,8.70
2023-03-14T02:26:21.120Z,8.65
2023-03-14T02:31:24.892Z,8.61
2023-03-14T02:36:29.895Z,8.61
2023-03-14T02:41:33.209Z,8.61
2023-03-14T02:46:36.215Z,8.62
2023-03-14T02:51:41.165Z,8.66
2023-03-14T02:56:44.078Z,8.77
2023-03-14T03:01:47.084Z,8.85
2023-03-14T03:06:50.086Z,8.92
2023-03-14T03:11:53.288Z,8.96
2023-03-14T03:16:56.307Z,9.00
2023-03-14T03:21:59.406Z,9.05
2023-03-14T03:27:02.829Z,9.07
2023-03-14T03:32:05.936Z,9.06
2023-03-14T03:37:09.052Z,9.08
2023-03-14T03:42:11.950Z,9.16
2023-03-14T03:47:15.061Z,9.19
2023-03-14T03:52:19.001Z,9.21
2023-03-14T03:57:22.097Z,9.23
2023-03-14T04:02:25.340Z,9.26
2023-03-14T04:07:28.723Z,9.28
2023-03-14T04:12:32.037Z,9.29
2023-03-14T04:17:35.044Z,9.26
2023-03-14T04:22:38.839Z,9.23
2023-03-14T04:27:41.878Z,9.19
2023-03-14T04:32:44.997Z,9.14
2023-03-14T04:37:50.345Z,9.07
2023-03-14T04:42:53.860Z,8.96
2023-03-14T04:47:56.972Z,8.87
2023-03-14T04:52:59.874Z,8.82
2023-03-14T04:58:02.883Z,8.77
2023-03-14T05:03:05.925Z,8.73
2023-03-14T05:08:09.092Z,8.73
2023-03-14T05:13:11.997Z,8.70
2023-03-14T05:18:15.106Z,8.70
2023-03-14T05:23:18.009Z,8.69
2023-03-14T05:28:21.124Z,8.65
2023-03-14T05:33:24.325Z,8.49
2023-03-14T05:38:27.310Z,8.32
2023-03-14T05:43:30.454Z,8.19
2023-03-14T05:48:33.460Z,8.11
2023-03-14T05:53:36.471Z,8.05
2023-03-14T05:58:39.977Z,8.03
2023-03-14T06:03:43.023Z,8.07
2023-03-14T06:08:46.402Z,8.14
2023-03-14T06:13:49.914Z,8.25
2023-03-14T06:18:53.541Z,8.36
2023-03-14T06:23:56.648Z,8.43
2023-03-14T06:29:04.506Z,8.42
2023-03-14T06:34:07.995Z,8.38
2023-03-14T06:39:11.108Z,8.32
2023-03-14T06:44:14.204Z,8.28
2023-03-14T06:49:17.213Z,8.37
2023-03-14T06:54:20.322Z,8.44
2023-03-14T06:59:23.637Z,8.46
2023-03-14T07:04:26.685Z,8.47
2023-03-14T07:09:29.979Z,8.69
2023-03-14T07:14:33.169Z,9.18
2023-03-14T07:19:36.685Z,9.55
2023-03-14T07:24:39.802Z,9.66
2023-03-14T07:29:42.813Z,9.65
2023-03-14T07:34:45.914Z,9.67
2023-03-14T07:39:49.063Z,9.76
2023-03-14T07:44:52.130Z,9.85
2023-03-14T07:49:55.242Z,10.00
2023-03-14T07:54:58.343Z,10.22
2023-03-14T08:00:01.458Z,10.48
2023-03-14T08:05:05.448Z,10.70
2023-03-14T08:10:09.798Z,10.84
2023-03-14T08:15:12.829Z,10.94
2023-03-14T08:20:15.956Z,11.05
2023-03-14T08:25:19.379Z,11.14
2023-03-14T08:30:23.666Z,11.30
2023-03-14T08:35:28.238Z,11.64
2023-03-14T08:40:31.552Z,12.15
2023-03-14T08:45:34.657Z,12.50
2023-03-14T08:50:37.886Z,12.76
2023-03-14T08:55:41.082Z,12.94
2023-03-14T09:00:44.199Z,12.95
2023-03-14T09:05:47.290Z,12.85
2023-03-14T09:10:50.314Z,12.73
2023-03-14T09:15:54.439Z,12.60
2023-03-14T09:20:57.648Z,12.59
2023-03-14T09:26:01.177Z,12.73
2023-03-14T09:31:09.659Z,12.92
2023-03-14T09:36:12.688Z,13.16
2023-03-14T09:41:29.057Z,13.32
2023-03-14T09:46:36.223Z,13.35
2023-03-14T09:51:40.617Z,13.26
2023-03-14T09:56:43.669Z,13.13
2023-03-14T10:01:46.727Z,13.03
2023-03-14T10:06:50.089Z,13.00
2023-03-14T10:12:08.830Z,13.00
2023-03-14T10:17:14.944Z,12.99
2023-03-14T10:22:18.576Z,13.06
2023-03-14T10:27:32.325Z,13.07
2023-03-14T10:32:43.301Z,12.98
2023-03-14T10:38:03.140Z,12.83
2023-03-14T10:43:14.738Z,12.69
2023-03-14T10:48:31.558Z,12.61
2023-03-14T10:53:43.379Z,12.61
2023-03-14T10:58:49.355Z,12.65
2023-03-14T11:04:10.667Z,12.74
2023-03-14T11:09:24.759Z,12.88
2023-03-14T11:14:33.066Z,12.86
2023-03-14T11:19:49.155Z,12.79
2023-03-14T11:25:15.962Z,12.71
2023-03-14T11:30:19.169Z,12.76
2023-03-14T11:35:34.887Z,12.88
2023-03-14T11:40:40.023Z,13.15
2023-03-14T11:45:45.156Z,13.29
2023-03-14T11:50:53.115Z,13.42
2023-03-14T11:55:56.236Z,13.50
2023-03-14T12:01:08.134Z,13.46
2023-03-14T12:06:34.858Z,13.29
2023-03-14T12:12:01.053Z,13.10
2023-03-14T12:17:19.313Z,12.94
2023-03-14T12:22:30.001Z,12.76
2023-03-14T12:27:48.210Z,12.55
2023-03-14T12:33:10.340Z,12.37
2023-03-14T12:38:25.707Z,12.24
2023-03-14T12:43:32.603Z,12.17
2023-03-14T12:48:35.717Z,12.13
2023-03-14T12:54:00.530Z,12.09
2023-03-14T12:59:14.593Z,12.04
2023-03-14T13:04:21.517Z,12.01
2023-03-14T13:09:35.457Z,12.02
2023-03-14T13:14:44.881Z,12.03
2023-03-14T13:19:53.615Z,12.00
2023-03-14T13:25:23.815Z,11.93
2023-03-14T13:30:30.652Z,11.88
2023-03-14T13:36:04.951Z,11.86
2023-03-14T13:41:09.433Z,11.83
2023-03-14T13:46:17.689Z,11.78
2023-03-14T13:51:22.249Z,11.69
2023-03-14T13:56:28.639Z,11.67
2023-03-14T14:01:38.685Z,11.65
2023-03-14T14:06:52.720Z,11.63
2023-03-14T14:12:17.475Z,11.62
2023-03-14T14:17:25.470Z,11.65
2023-03-14T14:22:28.621Z,11.84
2023-03-14T14:27:40.269Z,12.07
2023-03-14T14:32:43.536Z,12.18
2023-03-14T14:37:46.759Z,12.26
2023-03-14T14:42:50.970Z,12.35
2023-03-14T14:47:57.073Z,12.41
2023-03-14T14:53:02.695Z,12.55
2023-03-14T14:58:25.222Z,12.59
2023-03-14T15:03:30.975Z,12.39
2023-03-14T15:08:33.879Z,12.15
2023-03-14T15:13:37.094Z,11.97
2023-03-14T15:18:39.999Z,11.78
2023-03-14T15:23:43.185Z,11.64
2023-03-14T15:28:47.447Z,11.51
2023-03-14T15:33:51.324Z,11.41
2023-03-14T15:38:55.993Z,11.34
2023-03-14T15:43:59.435Z,11.24
2023-03-14T15:49:02.540Z,11.18
2023-03-14T15:54:05.758Z,11.11
2023-03-14T15:59:08.891Z,11.07
2023-03-14T16:04:12.142Z,11.03
2023-03-14T16:09:15.304Z,10.99
2023-03-14T16:14:18.341Z,10.95
2023-03-14T16:19:21.396Z,10.89
2023-03-14T16:24:24.711Z,10.82
2023-03-14T16:29:28.317Z,10.75
2023-03-14T16:34:32.046Z,10.68
2023-03-14T16:39:43.968Z,10.63
2023-03-14T16:44:54.448Z,10.56
2023-03-14T16:49:57.457Z,10.50
2023-03-14T16:55:00.467Z,10.43
2023-03-14T17:00:04.880Z,10.37
2023-03-14T17:05:08.357Z,10.33
2023-03-14T17:10:12.962Z,10.31
2023-03-14T17:15:16.175Z,10.30
2023-03-14T17:20:19.492Z,10.31
2023-03-14T17:25:22.595Z,10.31
2023-03-14T17:30:25.601Z,10.31
2023-03-14T17:35:29.007Z,10.30
2023-03-14T17:40:32.344Z,10.29
2023-03-14T17:45:36.062Z,10.25
2023-03-14T17:50:39.186Z,10.23
2023-03-14T17:55:42.521Z,10.21
2023-03-14T18:00:45.484Z,10.15
2023-03-14T18:05:49.116Z,10.07
2023-03-14T18:10:55.203Z,9.97
2023-03-14T18:15:58.778Z,9.89
2023-03-14T18:21:01.927Z,9.86
2023-03-14T18:26:05.337Z,9.84
2023-03-14T18:31:11.226Z,9.80
2023-03-14T18:36:14.415Z,9.75
2023-03-14T18:41:20.298Z,9.69
2023-03-14T18:46:24.382Z,9.62
2023-03-14T18:51:31.272Z,9.55
2023-03-14T18:56:34.333Z,9.49
2023-03-14T19:01:38.159Z,9.50
2023-03-14T19:06:41.979Z,9.52
2023-03-14T19:11:45.109Z,9.58
2023-03-14T19:16:48.466Z,9.61
2023-03-14T19:21:51.513Z,9.65
2023-03-14T19:26:55.761Z,9.68
2023-03-14T19:31:58.973Z,9.73
2023-03-14T19:37:02.072Z,9.74
2023-03-14T19:42:05.382Z,9.76
2023-03-14T19:47:08.383Z,9.76
2023-03-14T19:52:11.490Z,9.77
2023-03-14T19:57:14.802Z,9.76
2023-03-14T20:02:19.984Z,9.75
2023-03-14T20:07:23.887Z,9.71
2023-03-14T20:12:30.725Z,9.70
2023-03-14T20:17:38.646Z,9.68
2023-03-14T20:22:42.132Z,9.67
2023-03-14T20:27:46.894Z,9.66
2023-03-14T20:32:51.337Z,9.63
2023-03-14T20:37:56.320Z,9.58
2023-03-14T20:42:59.592Z,9.54
2023-03-14T20:48:02.802Z,9.52
2023-03-14T20:53:05.973Z,9.49
2023-03-14T20:58:13.032Z,9.48
2023-03-14T21:03:17.964Z,9.46
2023-03-14T21:08:24.692Z,9.43
2023-03-14T21:13:27.864Z,9.37
2023-03-14T21:18:31.896Z,9.29
2023-03-14T21:23:35.100Z,9.20
2023-03-14T21:28:38.125Z,9.14
2023-03-14T21:33:41.317Z,9.07
2023-03-14T21:38:44.426Z,8.99
2023-03-14T21:43:47.536Z,8.90
2023-03-14T21:48:50.541Z,8.83
2023-03-14T21:53:54.373Z,8.83
2023-03-14T21:58:59.326Z,8.78
2023-03-14T22:04:02.841Z,7.78
2023-03-14T22:09:05.935Z,6.32
2023-03-14T22:14:09.053Z,5.35
2023-03-14T22:19:12.166Z,4.55
2023-03-14T22:24:15.469Z,3.97
2023-03-14T22:29:18.374Z,3.50
2023-03-14T22:34:21.598Z,3.01
2023-03-14T22:39:24.958Z,2.64
2023-03-14T22:44:33.288Z,2.48
2023-03-14T22:49:36.237Z,2.38
2023-03-14T22:54:39.366Z,2.27
2023-03-14T22:59:42.454Z,2.22
2023-03-14T23:04:45.464Z,2.16
2023-03-14T23:09:48.364Z,2.12
2023-03-14T23:14:51.373Z,2.09
2023-03-14T23:19:54.755Z,2.03
2023-03-14T23:24:57.905Z,1.98
2023-03-14T23:30:01.025Z,1.92
2023-03-14T23:35:04.615Z,1.89
2023-03-14T23:40:08.290Z,1.86
2023-03-14T23:45:14.263Z,1.83
2023-03-14T23:50:17.340Z,1.79
2023-03-14T23:55:20.241Z,1.74
